Time;durP1;ratioP1;P1;durP2;ratioP2;P2;SDS_P1;SDS_P2;PMS_P1;PMS_P2;Temp;Humidity;BMP_temperature;BMP_pressure;BME280_temperature;BME280_humidity;BME280_pressure;Samples;Min_cycle;Max_cycle;Signal;HPM_P1;HPM_P2
2021/03/20 00:02:21;;;;;;;12.97;10.33;;;;;;;1.97;61.73;99333.91;252029;1146;115508;-72
2021/03/20 00:07:24;;;;;;;12.40;9.23;;;;;;;1.93;61.92;99331.37;252027;1146;114961;-79
2021/03/20 00:12:27;;;;;;;11.55;8.63;;;;;;;1.89;61.59;99333.20;248811;1153;114978;-72
2021/03/20 00:17:29;;;;;;;12.53;9.17;;;;;;;1.84;61.69;99337.70;249455;1146;114985;-81
2021/03/20 00:22:31;;;;;;;14.40;9.73;;;;;;;1.81;62.00;99345.64;250015;1148;114632;-81
2021/03/20 00:27:34;;;;;;;14.80;10.00;;;;;;;1.77;61.66;99349.23;249776;1153;114725;-72
2021/03/20 00:32:37;;;;;;;13.98;9.68;;;;;;;1.74;61.33;99347.53;252011;1153;114865;-73
2021/03/20 00:37:40;;;;;;;15.70;10.80;;;;;;;1.72;61.83;99348.45;248307;1146;114734;-79
2021/03/20 00:42:43;;;;;;;14.00;9.53;;;;;;;1.70;61.86;99348.50;251952;1146;114962;-72
2021/03/20 00:47:45;;;;;;;12.33;8.63;;;;;;;1.71;61.87;99358.08;251706;1145;115352;-78
2021/03/20 00:52:48;;;;;;;12.30;8.27;;;;;;;1.71;61.57;99357.22;251960;1153;115072;-73
2021/03/20 00:57:50;;;;;;;11.73;7.40;;;;;;;1.71;61.40;99354.59;252057;1146;114688;-73
2021/03/20 01:02:52;;;;;;;9.03;6.93;;;;;;;1.70;61.12;99355.47;251140;1153;114673;-73
2021/03/20 01:07:55;;;;;;;13.50;8.15;;;;;;;1.66;61.09;99354.67;251207;1153;115423;-80
2021/03/20 01:12:57;;;;;;;13.30;7.30;;;;;;;1.65;60.82;99358.20;250671;1153;114462;-82
2021/03/20 01:18:00;;;;;;;10.10;6.83;;;;;;;1.56;60.68;99358.38;248838;1146;114635;-73
2021/03/20 01:23:04;;;;;;;11.33;6.25;;;;;;;1.52;61.04;99360.20;250223;1146;115336;-73
2021/03/20 01:28:07;;;;;;;9.58;6.75;;;;;;;1.46;60.69;99368.22;249269;1146;114544;-79
2021/03/20 01:33:09;;;;;;;7.83;6.10;;;;;;;1.45;60.53;99362.98;248845;1145;114659;-80
2021/03/20 01:38:16;;;;;;;9.10;6.10;;;;;;;1.42;60.65;99361.28;249967;1145;114225;-81
2021/03/20 01:43:22;;;;;;;9.83;5.58;;;;;;;1.42;60.54;99362.14;250944;1153;115629;-74
2021/03/20 01:48:34;;;;;;;9.20;5.90;;;;;;;1.41;60.56;99365.67;250475;1145;114592;-74
2021/03/20 01:53:46;;;;;;;9.50;6.68;;;;;;;1.40;60.48;99371.81;250631;1147;114838;-82
2021/03/20 01:58:52;;;;;;;10.50;6.33;;;;;;;1.36;60.38;99370.16;248806;1147;114441;-81
2021/03/20 02:03:55;;;;;;;7.85;5.70;;;;;;;1.34;60.38;99379.80;250890;1146;115063;-75
2021/03/20 02:09:00;;;;;;;7.40;5.78;;;;;;;1.31;60.24;99374.61;250620;1146;115895;-72
2021/03/20 02:14:23;;;;;;;8.93;6.45;;;;;;;1.30;60.15;99380.75;250569;1146;114630;-72
2021/03/20 02:19:59;;;;;;;8.40;6.13;;;;;;;1.27;59.76;99377.33;251908;1146;114162;-71
2021/03/20 02:25:20;;;;;;;9.15;6.50;;;;;;;1.25;60.02;99389.59;251772;1152;115034;-79
2021/03/20 02:30:28;;;;;;;8.73;6.03;;;;;;;1.28;60.31;99389.53;251870;1146;114496;-79
2021/03/20 02:35:36;;;;;;;10.85;6.60;;;;;;;1.30;59.77;99398.25;251948;1146;114429;-73
2021/03/20 02:41:12;;;;;;;9.33;6.63;;;;;;;1.29;59.75;99397.39;251994;1146;114397;-73
2021/03/20 02:47:05;;;;;;;11.33;7.08;;;;;;;1.30;59.88;99403.48;252017;1153;114430;-81
2021/03/20 02:52:19;;;;;;;10.40;7.40;;;;;;;1.30;59.89;99399.11;250277;1145;114548;-73
2021/03/20 02:57:27;;;;;;;8.68;6.30;;;;;;;1.30;59.77;99406.11;251607;1153;114440;-80
2021/03/20 03:02:33;;;;;;;11.95;6.60;;;;;;;1.30;59.83;99413.98;249002;1145;114650;-72
2021/03/20 03:07:39;;;;;;;11.10;6.50;;;;;;;1.32;60.20;99425.28;252040;1153;115519;-73
2021/03/20 03:12:58;;;;;;;11.43;6.73;;;;;;;1.27;59.90;99427.14;251932;1147;114689;-79
2021/03/20 03:18:13;;;;;;;8.90;6.15;;;;;;;1.22;59.67;99440.30;247899;1153;114728;-80
2021/03/20 03:23:25;;;;;;;10.08;5.60;;;;;;;1.18;59.88;99438.64;252031;1146;114262;-80
2021/03/20 03:28:29;;;;;;;9.63;5.45;;;;;;;1.10;59.30;99449.27;251819;1153;115571;-81
2021/03/20 03:33:41;;;;;;;6.80;4.25;;;;;;;1.07;59.29;99443.21;252015;1147;114482;-73
2021/03/20 03:38:52;;;;;;;7.53;4.53;;;;;;;1.02;59.33;99453.78;252042;1145;114522;-80
2021/03/20 03:43:55;;;;;;;8.70;4.67;;;;;;;1.01;58.97;99461.66;248492;1146;114465;-79
2021/03/20 03:49:01;;;;;;;9.05;4.33;;;;;;;0.99;58.83;99466.07;249945;1153;114576;-78
2021/03/20 03:54:03;;;;;;;7.53;4.48;;;;;;;0.95;58.69;99475.70;251739;1146;114377;-79
2021/03/20 03:59:34;;;;;;;8.00;4.40;;;;;;;0.92;58.46;99479.27;248830;1146;114982;-79
2021/03/20 04:05:10;;;;;;;7.00;4.35;;;;;;;0.86;58.71;99484.59;251535;1146;114818;-73
2021/03/20 04:10:31;;;;;;;11.15;5.20;;;;;;;0.82;58.66;99496.02;251599;1146;116118;-72
2021/03/20 04:15:36;;;;;;;7.83;4.53;;;;;;;0.79;58.71;99506.54;249201;1146;115113;-72
2021/03/20 04:21:27;;;;;;;10.20;4.67;;;;;;;0.78;59.14;99517.92;251224;1146;114545;-80
2021/03/20 04:26:45;;;;;;;8.63;4.70;;;;;;;0.75;59.09;99509.20;250079;1145;115792;-72
2021/03/20 04:31:57;;;;;;;8.73;4.33;;;;;;;0.73;58.67;99524.96;247201;1153;114463;-71
2021/03/20 04:37:10;;;;;;;10.63;4.73;;;;;;;0.70;58.84;99525.86;252000;1147;114554;-78
2021/03/20 04:42:16;;;;;;;7.60;4.25;;;;;;;0.69;58.94;99531.14;249766;1146;114597;-71
2021/03/20 04:47:24;;;;;;;8.27;4.23;;;;;;;0.68;58.83;99539.89;252292;1146;114542;-79
2021/03/20 04:52:42;;;;;;;9.90;4.63;;;;;;;0.66;58.16;99552.98;250944;1147;114743;-72
2021/03/20 04:57:51;;;;;;;9.43;4.63;;;;;;;0.69;58.34;99562.56;252118;1147;114677;-77
2021/03/20 05:03:05;;;;;;;11.23;4.20;;;;;;;0.65;57.77;99572.22;252098;1146;114633;-80
2021/03/20 05:08:12;;;;;;;9.53;4.20;;;;;;;0.58;57.52;99569.67;251923;1146;115550;-80
2021/03/20 05:13:38;;;;;;;9.58;4.38;;;;;;;0.50;57.42;99588.11;250835;1145;114539;-74
2021/03/20 05:18:49;;;;;;;11.93;4.70;;;;;;;0.31;57.31;99599.72;251539;1146;116177;-71
2021/03/20 05:23:51;;;;;;;12.15;4.73;;;;;;;0.18;56.70;99601.59;252016;1153;114770;-71
2021/03/20 05:28:54;;;;;;;12.47;5.47;;;;;;;0.12;56.95;99615.59;250272;1145;115079;-72
2021/03/20 05:33:57;;;;;;;11.67;4.97;;;;;;;0.12;56.71;99622.59;249804;1147;115385;-72
2021/03/20 05:38:59;;;;;;;12.95;5.25;;;;;;;0.09;56.29;99628.71;248104;1146;114810;-81
2021/03/20 05:44:14;;;;;;;16.80;5.58;;;;;;;-0.02;56.26;99635.81;252189;1152;115390;-74
2021/03/20 05:49:25;;;;;;;12.55;4.73;;;;;;;-0.16;55.50;99638.55;251897;1146;114903;-80
2021/03/20 05:54:52;;;;;;;16.00;5.43;;;;;;;-0.31;55.22;99636.92;249845;1153;115064;-78
2021/03/20 06:00:18;;;;;;;15.78;5.45;;;;;;;-0.29;55.99;99647.39;251915;1153;114941;-72
2021/03/20 06:05:52;;;;;;;12.70;5.43;;;;;;;-0.33;54.83;99656.14;250941;1146;114883;-72
2021/03/20 06:11:32;;;;;;;12.40;5.43;;;;;;;-0.40;55.56;99660.55;252016;1153;114962;-73
2021/03/20 06:16:43;;;;;;;15.78;5.73;;;;;;;-0.47;55.36;99665.84;250226;1153;114948;-72
2021/03/20 06:22:21;;;;;;;12.77;5.87;;;;;;;-0.51;55.14;99663.25;251546;1146;115313;-71
2021/03/20 06:27:39;;;;;;;17.70;6.37;;;;;;;-0.46;55.20;99675.41;250395;1145;115134;-72
2021/03/20 06:32:46;;;;;;;18.03;6.33;;;;;;;-0.49;54.86;99686.75;251283;1153;114975;-79
2021/03/20 06:37:56;;;;;;;15.28;6.23;;;;;;;-0.51;55.09;99694.63;251989;1147;115058;-79
2021/03/20 06:42:59;;;;;;;13.30;5.85;;;;;;;-0.58;54.79;99686.80;248464;1153;115294;-73
2021/03/20 06:48:11;;;;;;;16.90;7.20;;;;;;;-0.64;54.60;99697.33;252026;1146;115154;-73
2021/03/20 06:53:16;;;;;;;15.60;7.00;;;;;;;-0.67;54.92;99694.73;251555;1153;115097;-80
2021/03/20 06:58:24;;;;;;;15.65;7.63;;;;;;;-0.69;54.79;99707.78;250393;1145;115378;-72
2021/03/20 07:03:53;;;;;;;23.97;8.23;;;;;;;-0.61;55.16;99706.02;252054;1146;115235;-72
2021/03/20 07:09:00;;;;;;;18.10;8.33;;;;;;;-0.58;54.76;99707.72;251937;1146;115002;-78
2021/03/20 07:14:12;;;;;;;19.40;7.20;;;;;;;-0.54;55.10;99717.30;252006;1153;115113;-72
2021/03/20 07:19:16;;;;;;;19.43;7.63;;;;;;;-0.47;55.25;99718.13;251945;1146;115332;-73
2021/03/20 07:24:29;;;;;;;15.33;6.50;;;;;;;-0.32;55.54;99720.63;251705;1146;115234;-78
2021/03/20 07:29:48;;;;;;;14.08;6.33;;;;;;;-0.15;55.05;99720.50;251899;1146;115218;-78
2021/03/20 07:34:56;;;;;;;13.88;6.20;;;;;;;-0.01;54.90;99731.72;251928;1153;114915;-79
2021/03/20 07:40:01;;;;;;;15.10;6.67;;;;;;;0.06;55.23;99736.02;251947;1148;115027;-77
2021/03/20 07:45:29;;;;;;;16.35;6.40;;;;;;;0.09;54.54;99743.84;252017;1146;114671;-77
2021/03/20 07:50:40;;;;;;;15.60;6.70;;;;;;;0.18;54.80;99735.92;249463;1146;115887;-71
2021/03/20 07:55:52;;;;;;;14.40;6.00;;;;;;;0.31;54.73;99743.68;251111;1146;115572;-72
2021/03/20 08:01:00;;;;;;;11.30;5.00;;;;;;;0.30;54.38;99744.54;247183;1145;115158;-71
2021/03/20 08:06:13;;;;;;;12.98;5.65;;;;;;;0.37;54.23;99749.70;251922;1153;114852;-78
2021/03/20 08:11:30;;;;;;;15.90;5.85;;;;;;;0.36;54.06;99757.58;248041;1153;115420;-72
2021/03/20 08:16:33;;;;;;;11.30;4.93;;;;;;;0.43;54.21;99754.88;251704;1153;114649;-70
2021/03/20 08:21:42;;;;;;;13.80;6.27;;;;;;;0.54;54.22;99753.91;252014;1146;114702;-78
2021/03/20 08:27:05;;;;;;;17.17;6.13;;;;;;;0.71;54.62;99749.36;251953;1153;116785;-80
2021/03/20 08:32:14;;;;;;;13.77;6.10;;;;;;;0.90;54.81;99760.52;248022;1153;115029;-80
2021/03/20 08:37:48;;;;;;;11.90;6.10;;;;;;;1.10;54.71;99765.53;250507;1153;114779;-81
2021/03/20 08:42:50;;;;;;;13.58;5.95;;;;;;;1.18;54.61;99756.67;251940;1146;115194;-82
2021/03/20 08:48:14;;;;;;;11.80;5.75;;;;;;;1.23;53.52;99758.39;251622;1153;114749;-80
2021/03/20 08:53:43;;;;;;;12.95;5.75;;;;;;;1.30;53.67;99766.16;251929;1145;114766;-76
2021/03/20 08:58:59;;;;;;;10.17;5.07;;;;;;;1.47;53.86;99765.94;251928;1146;115141;-80
2021/03/20 09:04:09;;;;;;;9.80;4.75;;;;;;;1.56;53.10;99759.68;251859;1153;114984;-75
2021/03/20 09:09:20;;;;;;;10.83;5.07;;;;;;;1.69;53.53;99776.13;251916;1146;114509;-80
2021/03/20 09:14:45;;;;;;;10.23;5.23;;;;;;;1.70;52.93;99777.84;251994;1146;114855;-75
2021/03/20 09:20:04;;;;;;;14.58;6.38;;;;;;;1.84;53.20;99775.92;251918;1146;115010;-80
2021/03/20 09:25:49;;;;;;;9.57;5.33;;;;;;;2.06;53.34;99779.07;251957;1145;114933;-75
2021/03/20 09:30:55;;;;;;;10.95;5.05;;;;;;;2.06;52.20;99774.68;251559;1146;114916;-80
2021/03/20 09:36:07;;;;;;;13.70;6.05;;;;;;;2.15;52.27;99783.33;251670;1153;115316;-78
2021/03/20 09:41:18;;;;;;;12.08;5.70;;;;;;;2.19;51.89;99790.25;251972;1146;114954;-81
2021/03/20 09:46:36;;;;;;;12.25;5.00;;;;;;;2.15;51.75;99786.81;252006;1153;115501;-80
2021/03/20 09:51:57;;;;;;;7.87;3.90;;;;;;;2.28;51.53;99797.99;251550;1146;114729;-78
2021/03/20 09:57:06;;;;;;;7.20;3.10;;;;;;;2.42;50.99;99790.75;250410;1153;115275;-79
2021/03/20 10:02:09;;;;;;;8.00;3.57;;;;;;;2.51;50.75;99792.33;251936;1145;114523;-79
2021/03/20 10:07:21;;;;;;;7.30;2.33;;;;;;;2.53;49.66;99801.06;251934;1146;116282;-78
2021/03/20 10:12:29;;;;;;;6.95;2.40;;;;;;;2.65;50.09;99794.72;251929;1146;114922;-78
2021/03/20 10:17:53;;;;;;;4.60;2.30;;;;;;;2.92;50.49;99788.98;251669;1147;114899;-79
2021/03/20 10:23:04;;;;;;;6.70;2.83;;;;;;;3.22;50.27;99795.38;251858;1147;114554;-76
2021/03/20 10:28:07;;;;;;;5.83;3.38;;;;;;;3.55;50.15;99785.93;251861;1146;114466;-77
2021/03/20 10:33:13;;;;;;;10.85;3.30;;;;;;;3.81;50.04;99805.57;251196;1153;114895;-75
2021/03/20 10:38:22;;;;;;;5.90;2.73;;;;;;;3.89;48.34;99798.35;251978;1153;114670;-81
2021/03/20 10:43:26;;;;;;;4.77;2.73;;;;;;;3.97;48.46;99804.33;252026;1145;114710;-76
2021/03/20 10:48:29;;;;;;;8.00;2.83;;;;;;;4.24;49.04;99794.02;251899;1146;114520;-84
2021/03/20 10:53:41;;;;;;;5.00;2.97;;;;;;;4.40;48.52;99790.12;251960;1146;115126;-76
2021/03/20 10:58:44;;;;;;;12.35;4.10;;;;;;;4.60;48.18;99794.89;249485;1146;115032;-76
2021/03/20 11:03:47;;;;;;;10.88;3.75;;;;;;;4.80;47.20;99781.20;251934;1145;115727;-76
2021/03/20 11:09:20;;;;;;;8.87;3.83;;;;;;;4.93;47.08;99790.52;251959;1145;114763;-75
2021/03/20 11:14:22;;;;;;;9.53;3.87;;;;;;;4.97;47.86;99783.38;249240;1146;115127;-79
2021/03/20 11:19:41;;;;;;;10.27;4.40;;;;;;;4.95;47.53;99783.41;251994;1153;114733;-76
2021/03/20 11:24:55;;;;;;;12.00;4.65;;;;;;;4.70;46.09;99790.25;249971;1146;115175;-80
2021/03/20 11:30:01;;;;;;;8.08;3.78;;;;;;;4.57;45.78;99778.29;251494;1153;115030;-76
2021/03/20 11:35:28;;;;;;;10.88;3.95;;;;;;;4.59;45.86;99777.35;251159;1146;114995;-79
2021/03/20 11:40:33;;;;;;;9.80;4.60;;;;;;;4.22;45.36;99774.77;250202;1146;114721;-80
2021/03/20 11:45:41;;;;;;;7.95;4.55;;;;;;;4.09;45.27;99768.92;252177;1146;115148;-80
2021/03/20 11:50:52;;;;;;;8.70;4.30;;;;;;;3.92;45.17;99769.32;252078;1152;114556;-79
2021/03/20 11:55:57;;;;;;;8.00;4.55;;;;;;;3.79;45.05;99755.57;251438;1144;115647;-70
2021/03/20 12:01:20;;;;;;;10.40;4.85;;;;;;;4.07;45.11;99759.33;251602;1152;114243;-79
2021/03/20 12:06:29;;;;;;;7.83;5.05;;;;;;;4.10;44.94;99749.58;250604;1146;114794;-77
2021/03/20 12:11:43;;;;;;;8.23;4.88;;;;;;;3.93;45.08;99751.75;252317;1152;115784;-79
2021/03/20 12:16:46;;;;;;;11.17;5.53;;;;;;;3.81;45.27;99749.42;252443;1144;114337;-79
2021/03/20 12:21:57;;;;;;;11.33;5.13;;;;;;;3.67;44.98;99747.08;252116;1152;114757;-79
2021/03/20 12:27:27;;;;;;;9.60;4.90;;;;;;;3.62;45.49;99741.92;247772;1146;114702;-78
2021/03/20 12:32:40;;;;;;;9.83;5.00;;;;;;;3.48;45.07;99747.50;252253;1152;114673;-76
2021/03/20 12:38:16;;;;;;;9.97;4.97;;;;;;;3.29;45.29;99748.78;247194;1153;114732;-77
2021/03/20 12:43:22;;;;;;;11.40;5.73;;;;;;;3.21;45.94;99758.61;248653;1152;114907;-79
2021/03/20 12:48:26;;;;;;;11.23;5.30;;;;;;;3.12;45.57;99753.53;251983;1146;115388;-81
2021/03/20 12:54:02;;;;;;;12.35;6.15;;;;;;;3.04;45.55;99751.92;250101;1144;114948;-78
2021/03/20 12:59:04;;;;;;;;;;;;;;;3.02;45.43;99748.47;251658;1144;114776;-76
2021/03/20 13:04:09;;;;;;;10.45;4.80;;;;;;;3.03;45.98;99741.45;252371;1152;101889;-80
2021/03/20 13:09:12;;;;;;;9.20;5.20;;;;;;;3.10;45.87;99742.19;252249;1145;115252;-76
2021/03/20 13:14:15;;;;;;;11.33;5.85;;;;;;;3.18;45.75;99738.48;252385;1152;114634;-80
2021/03/20 13:19:18;;;;;;;8.63;4.83;;;;;;;3.39;45.42;99738.94;252230;1146;115338;-75
2021/03/20 13:24:23;;;;;;;11.10;5.37;;;;;;;3.40;45.00;99743.31;251866;1152;114816;-78
2021/03/20 13:29:26;;;;;;;11.13;5.60;;;;;;;3.38;45.19;99738.08;251781;1148;114627;-83
2021/03/20 13:35:01;;;;;;;13.20;6.07;;;;;;;3.35;45.26;99740.77;248980;1152;115119;-86
2021/03/20 13:40:07;;;;;;;10.20;5.70;;;;;;;3.50;45.53;99731.70;249695;1148;115220;-79
2021/03/20 13:45:13;;;;;;;12.63;6.00;;;;;;;3.79;45.76;99729.24;249726;1153;115042;-75
2021/03/20 13:50:17;;;;;;;14.77;6.90;;;;;;;3.84;44.77;99726.52;250119;1146;115414;-84
2021/03/20 13:55:20;;;;;;;21.60;11.43;;;;;;;5.30;49.67;99718.25;250660;1144;114810;-83
2021/03/20 14:01:27;;;;;;;13.20;6.33;;;;;;;5.45;45.61;99712.49;251923;1144;115179;-72
2021/03/20 14:06:29;;;;;;;375.10;39.55;;;;;;;6.35;49.84;99695.55;251243;1147;115254;-74
2021/03/20 14:12:05;;;;;;;17.50;6.90;;;;;;;6.80;45.61;99707.21;252410;1153;114838;-82
2021/03/20 14:17:14;;;;;;;13.57;6.00;;;;;;;6.12;44.04;99703.39;252301;1144;114772;-81
2021/03/20 14:22:18;;;;;;;9.90;4.90;;;;;;;5.37;42.65;99711.88;252242;1152;115310;-81
2021/03/20 14:27:21;;;;;;;13.17;6.30;;;;;;;4.72;42.97;99710.22;252210;1144;114960;-77
2021/03/20 14:32:23;;;;;;;10.33;5.75;;;;;;;4.40;42.88;99713.70;252346;1153;114600;-72
2021/03/20 14:37:26;;;;;;;9.83;5.20;;;;;;;4.14;43.30;99710.86;252015;1148;114657;-79
2021/03/20 14:42:29;;;;;;;12.40;5.60;;;;;;;3.95;43.00;99706.06;252336;1153;114529;-78
2021/03/20 14:47:32;;;;;;;11.43;5.90;;;;;;;3.84;43.00;99702.83;252289;1144;115052;-80
2021/03/20 15:00:38;;;;;;;13.95;6.45;;;;;;;3.66;43.21;99704.10;250340;1144;114790;-81
2021/03/20 15:05:42;;;;;;;11.80;6.17;;;;;;;3.69;43.35;99697.91;252103;1152;114816;-78
2021/03/20 15:10:49;;;;;;;14.80;6.45;;;;;;;3.64;43.20;99692.77;249377;1146;114788;-78
2021/03/20 15:15:53;;;;;;;14.37;6.43;;;;;;;3.60;43.52;99696.38;252340;1153;114869;-73
2021/03/20 15:20:58;;;;;;;10.33;6.00;;;;;;;3.55;43.34;99680.67;252189;1146;114706;-72
2021/03/20 15:26:02;;;;;;;;;;;;;;;3.50;43.62;99695.72;252234;1153;114863;-77
2021/03/20 15:31:06;;;;;;;12.40;5.75;;;;;;;3.46;43.37;99682.65;252260;1146;101111;-80
2021/03/20 15:36:09;;;;;;;10.65;5.68;;;;;;;3.45;43.47;99676.52;252048;1153;115008;-80
2021/03/20 15:41:12;;;;;;;10.78;5.48;;;;;;;3.40;42.83;99677.55;251508;1146;115005;-79
2021/03/20 15:46:21;;;;;;;19.15;8.95;;;;;;;3.35;42.55;99672.38;252168;1152;115000;-79
2021/03/20 15:51:23;;;;;;;13.10;6.03;;;;;;;3.32;42.52;99681.19;252328;1147;114792;-70
2021/03/20 15:56:26;;;;;;;13.10;7.27;;;;;;;3.34;42.58;99688.20;249103;1144;114962;-68
2021/03/20 16:01:28;;;;;;;14.10;5.68;;;;;;;3.29;42.08;99683.02;250869;1145;115182;-79
2021/03/20 16:07:03;;;;;;;14.50;6.70;;;;;;;3.20;42.02;99681.48;252305;1152;114107;-71
2021/03/20 16:12:06;;;;;;;16.57;6.73;;;;;;;3.11;41.92;99686.92;249456;1146;115831;-69
2021/03/20 16:17:08;;;;;;;16.58;6.45;;;;;;;2.99;41.44;99690.70;250560;1152;114731;-81
2021/03/20 16:23:15;;;;;;;12.75;6.20;;;;;;;2.95;41.68;99682.88;249761;1146;114442;-81
2021/03/20 16:28:30;;;;;;;14.83;6.75;;;;;;;2.83;41.56;99689.27;249579;1144;115006;-86
2021/03/20 16:33:33;;;;;;;17.93;7.53;;;;;;;2.81;41.70;99681.40;249739;1146;114674;-70
2021/03/20 16:38:39;;;;;;;15.27;7.03;;;;;;;2.81;41.54;99668.25;250966;1152;114628;-69
2021/03/20 16:43:42;;;;;;;14.25;7.15;;;;;;;2.80;41.53;99679.67;252225;1147;114526;-74
2021/03/20 16:48:45;;;;;;;17.40;6.87;;;;;;;2.76;41.31;99682.41;252253;1153;114735;-69
2021/03/20 16:53:58;;;;;;;15.70;7.03;;;;;;;2.73;41.41;99682.47;252185;1152;114718;-75
2021/03/20 16:59:08;;;;;;;21.30;8.67;;;;;;;2.72;41.30;99686.00;252006;1144;114952;-73
2021/03/20 17:04:11;;;;;;;16.00;7.70;;;;;;;2.69;41.22;99675.55;250394;1152;114707;-72
2021/03/20 17:09:13;;;;;;;16.50;7.63;;;;;;;2.59;41.28;99678.34;248654;1152;114740;-77
2021/03/20 17:14:16;;;;;;;21.95;8.60;;;;;;;2.54;41.39;99680.17;252232;1147;114580;-74
2021/03/20 17:19:19;;;;;;;17.27;8.27;;;;;;;2.54;41.42;99669.66;252256;1153;115384;-79
2021/03/20 17:24:21;;;;;;;16.63;8.55;;;;;;;2.56;41.31;99672.28;252300;1146;114803;-76
2021/03/20 17:29:23;;;;;;;18.33;8.45;;;;;;;2.58;41.41;99673.10;251734;1152;114500;-70
2021/03/20 17:34:26;;;;;;;21.55;9.28;;;;;;;2.57;41.43;99681.89;252542;1144;114284;-69
2021/03/20 17:39:28;;;;;;;19.33;9.23;;;;;;;2.57;41.48;99689.77;249583;1152;114571;-71
2021/03/20 17:44:31;;;;;;;23.40;9.50;;;;;;;2.56;41.10;99690.67;250116;1145;115332;-71
2021/03/20 17:49:33;;;;;;;24.55;11.30;;;;;;;2.45;40.70;99685.63;251822;1153;114471;-77
2021/03/20 17:54:42;;;;;;;21.87;10.13;;;;;;;2.35;41.01;99684.06;252019;1146;114439;-78
2021/03/20 17:59:44;;;;;;;22.85;11.18;;;;;;;2.30;41.27;99675.39;251645;1152;114599;-78
2021/03/20 18:04:46;;;;;;;27.43;11.90;;;;;;;2.26;41.33;99681.59;252252;1146;114760;-72
2021/03/20 18:09:49;;;;;;;25.35;11.53;;;;;;;2.14;41.37;99674.81;252243;1152;114990;-79
2021/03/20 18:14:51;;;;;;;28.08;11.88;;;;;;;2.13;41.29;99676.55;252101;1147;114691;-79
2021/03/20 18:19:54;;;;;;;25.30;12.05;;;;;;;2.04;40.79;99671.48;249035;1153;114613;-73
2021/03/20 18:25:13;;;;;;;28.53;11.97;;;;;;;2.03;41.30;99672.35;252330;1146;114947;-78
2021/03/20 18:30:24;;;;;;;22.65;10.65;;;;;;;1.97;41.24;99676.84;252254;1152;114735;-72
2021/03/20 18:35:26;;;;;;;27.60;12.73;;;;;;;1.97;41.29;99682.98;252074;1145;114796;-79
2021/03/20 18:40:32;;;;;;;28.65;12.85;;;;;;;1.94;41.57;99683.03;249247;1152;114603;-71
2021/03/20 18:45:36;;;;;;;28.55;12.85;;;;;;;1.92;41.51;99690.05;249651;1146;114504;-80
2021/03/20 18:50:39;;;;;;;28.53;13.23;;;;;;;1.89;41.58;99692.72;252141;1153;114586;-73
2021/03/20 18:55:42;;;;;;;29.10;12.65;;;;;;;1.85;41.43;99691.05;250005;1153;114659;-71
2021/03/20 19:00:44;;;;;;;30.10;13.30;;;;;;;1.83;41.28;99701.55;252291;1152;114775;-73
2021/03/20 19:05:48;;;;;;;35.40;14.85;;;;;;;1.82;41.72;99684.08;251523;1152;114878;-76
2021/03/20 19:10:51;;;;;;;37.20;14.98;;;;;;;1.80;41.68;99687.61;251114;1152;114966;-75
2021/03/20 19:15:54;;;;;;;34.78;14.90;;;;;;;1.79;41.82;99688.52;252091;1147;114813;-82
2021/03/20 19:20:57;;;;;;;36.73;15.43;;;;;;;1.76;41.77;99689.42;252060;1153;114714;-75
2021/03/20 19:26:00;;;;;;;32.58;14.83;;;;;;;1.74;42.10;99683.34;252127;1146;115785;-84
2021/03/20 19:31:07;;;;;;;40.05;16.25;;;;;;;1.68;41.75;99690.45;250634;1152;114838;-83
2021/03/20 19:36:11;;;;;;;34.93;15.90;;;;;;;1.62;41.54;99684.39;251753;1144;115124;-82
2021/03/20 19:41:14;;;;;;;39.40;16.03;;;;;;;1.63;41.80;99682.63;251778;1152;114794;-75
2021/03/20 19:46:22;;;;;;;37.00;16.73;;;;;;;1.61;41.67;99681.80;252200;1146;114615;-82
2021/03/20 19:51:25;;;;;;;38.68;16.28;;;;;;;1.61;41.41;99682.67;252165;1152;114731;-74
2021/03/20 19:56:27;;;;;;;40.60;17.45;;;;;;;1.59;41.64;99679.19;252164;1146;114972;-74
2021/03/20 20:01:30;;;;;;;40.90;16.28;;;;;;;1.54;41.05;99688.90;251178;1152;114665;-81
2021/03/20 20:06:33;;;;;;;37.55;16.90;;;;;;;1.49;41.64;99680.22;251441;1146;115781;-75
2021/03/20 20:11:36;;;;;;;41.07;16.83;;;;;;;1.45;41.57;99678.53;251587;1152;115320;-75
2021/03/20 20:16:39;;;;;;;37.00;16.58;;;;;;;1.39;41.81;99668.13;250745;1146;114900;-73
2021/03/20 20:21:42;;;;;;;39.37;16.13;;;;;;;1.38;41.49;99666.41;252211;1152;114868;-81
2021/03/20 20:26:47;;;;;;;37.30;14.77;;;;;;;1.34;41.42;99669.97;252242;1145;114842;-82
2021/03/20 20:31:51;;;;;;;37.30;14.90;;;;;;;1.26;41.95;99663.95;249719;1152;114845;-74
2021/03/20 20:36:54;;;;;;;38.20;14.93;;;;;;;1.21;41.48;99664.02;252196;1146;114761;-81
2021/03/20 20:41:58;;;;;;;38.48;16.73;;;;;;;1.16;41.68;99663.23;250417;1152;115139;-73
2021/03/20 20:47:06;;;;;;;39.43;18.37;;;;;;;1.11;42.24;99655.42;252211;1146;115076;-80
2021/03/20 20:52:10;;;;;;;44.47;19.23;;;;;;;1.02;42.13;99647.70;252168;1153;114657;-84
2021/03/20 20:57:13;;;;;;;50.45;20.43;;;;;;;0.97;41.98;99646.88;252236;1145;114328;-75
2021/03/20 21:02:16;;;;;;;47.20;20.33;;;;;;;0.91;42.12;99644.34;252268;1152;114836;-79
2021/03/20 21:07:18;;;;;;;51.65;22.68;;;;;;;0.86;42.67;99643.55;252220;1144;114851;-75
2021/03/20 21:12:21;;;;;;;53.73;24.67;;;;;;;0.81;42.54;99642.72;252196;1152;114776;-74
2021/03/20 21:17:23;;;;;;;60.80;26.28;;;;;;;0.74;42.53;99641.08;252212;1144;114494;-84
2021/03/20 21:22:26;;;;;;;66.47;27.63;;;;;;;0.72;42.87;99637.63;252246;1152;114635;-75
2021/03/20 21:27:29;;;;;;;63.85;28.65;;;;;;;0.67;42.90;99638.52;252145;1146;114675;-75
2021/03/20 21:32:31;;;;;;;75.57;34.53;;;;;;;0.64;42.88;99642.94;252166;1152;114536;-84
2021/03/20 21:37:36;;;;;;;76.48;30.65;;;;;;;0.58;43.10;99637.77;252309;1145;114610;-85
2021/03/20 21:42:40;;;;;;;71.97;32.20;;;;;;;0.53;43.39;99637.83;252191;1153;114718;-74
2021/03/20 21:47:42;;;;;;;75.45;32.53;;;;;;;0.48;43.67;99637.03;252404;1144;114572;-83
2021/03/20 21:52:45;;;;;;;72.25;28.53;;;;;;;0.46;42.95;99637.03;252217;1152;114797;-83
2021/03/20 21:57:54;;;;;;;67.68;28.08;;;;;;;0.42;43.23;99624.87;252167;1144;114686;-82
2021/03/20 22:02:56;;;;;;;;;;;;;;;0.35;43.17;99619.73;252271;1152;114511;-75
2021/03/20 22:07:59;;;;;;;72.45;28.33;;;;;;;0.30;43.48;99611.05;252269;1144;101220;-75
2021/03/20 22:13:02;;;;;;;65.95;27.53;;;;;;;0.29;43.22;99609.32;252239;1152;114587;-83
2021/03/20 22:18:06;;;;;;;57.20;26.30;;;;;;;0.26;43.60;99618.06;252182;1146;115714;-74
2021/03/20 22:23:10;;;;;;;61.07;26.43;;;;;;;0.23;42.88;99623.33;252174;1153;115086;-82
2021/03/20 22:28:18;;;;;;;63.48;25.83;;;;;;;0.23;43.36;99608.48;252131;1144;114480;-74
2021/03/20 22:33:20;;;;;;;59.15;24.58;;;;;;;0.25;43.35;99607.63;252184;1152;115669;-75
2021/03/20 22:38:24;;;;;;;59.87;24.97;;;;;;;0.26;42.86;99601.50;252190;1144;115516;-75
2021/03/20 22:43:27;;;;;;;62.18;26.55;;;;;;;0.23;42.98;99590.17;252215;1152;114678;-76
2021/03/20 22:48:30;;;;;;;55.68;24.65;;;;;;;0.23;43.16;99584.07;252176;1144;114546;-76
2021/03/20 22:53:33;;;;;;;53.75;24.85;;;;;;;0.20;42.86;99576.25;252208;1152;114468;-75
2021/03/20 22:58:36;;;;;;;53.53;21.65;;;;;;;0.16;42.89;99578.04;252148;1144;114826;-73
2021/03/20 23:03:47;;;;;;;47.05;21.10;;;;;;;0.12;42.87;99573.73;252252;1152;115051;-76
2021/03/20 23:08:52;;;;;;;49.95;22.70;;;;;;;0.08;42.81;99568.56;251765;1144;114830;-74
2021/03/20 23:13:56;;;;;;;49.88;21.58;;;;;;;0.02;43.33;99559.02;252163;1152;115108;-81
2021/03/20 23:19:00;;;;;;;57.13;24.45;;;;;;;-0.01;43.62;99567.76;250590;1144;115130;-74
2021/03/20 23:24:03;;;;;;;58.30;26.93;;;;;;;-0.05;43.82;99566.06;252062;1146;115008;-81
2021/03/20 23:29:13;;;;;;;65.68;28.78;;;;;;;-0.10;44.12;99566.98;252078;1145;114948;-84
2021/03/20 23:34:16;;;;;;;67.13;28.33;;;;;;;-0.18;44.28;99556.61;252230;1144;115443;-79
2021/03/20 23:39:20;;;;;;;68.18;29.68;;;;;;;-0.21;44.51;99548.79;252000;1146;115048;-73
2021/03/20 23:44:22;;;;;;;70.00;29.35;;;;;;;-0.28;44.41;99540.14;252197;1153;115284;-79
2021/03/20 23:49:25;;;;;;;65.58;28.65;;;;;;;-0.32;44.82;99537.58;252184;1146;115022;-73